sensor_id;sensor_type;location;lat;lon;timestamp;P1;durP1;ratioP1;P2;durP2;ratioP2
4806;SDS011;2417;52.482;13.432;2023-10-19T00:00:32;24.77;;;13.77;;
4806;SDS011;2417;52.482;13.432;2023-10-19T00:03:00;24.90;;;13.70;;
4806;SDS011;2417;52.482;13.432;2023-10-19T00:05:31;33.13;;;14.63;;
4806;SDS011;2417;52.482;13.432;2023-10-19T00:07:59;27.17;;;12.60;;
4806;SDS011;2417;52.482;13.432;2023-10-19T00:10:32;29.10;;;13.90;;
4806;SDS011;2417;52.482;13.432;2023-10-19T00:13:02;34.87;;;13.30;;
4806;SDS011;2417;52.482;13.432;2023-10-19T00:15:32;25.67;;;12.80;;
4806;SDS011;2417;52.482;13.432;2023-10-19T00:18:00;26.80;;;13.17;;
4806;SDS011;2417;52.482;13.432;2023-10-19T00:20:50;22.63;;;13.40;;
4806;SDS011;2417;52.482;13.432;2023-10-19T00:23:26;23.73;;;13.07;;
4806;SDS011;2417;52.482;13.432;2023-10-19T00:25:58;23.63;;;13.07;;
4806;SDS011;2417;52.482;13.432;2023-10-19T00:28:27;23.27;;;12.67;;
4806;SDS011;2417;52.482;13.432;2023-10-19T00:30:55;23.53;;;12.97;;
4806;SDS011;2417;52.482;13.432;2023-10-19T00:33:30;24.67;;;12.80;;
4806;SDS011;2417;52.482;13.432;2023-10-19T00:36:02;30.10;;;14.00;;
4806;SDS011;2417;52.482;13.432;2023-10-19T00:38:36;25.07;;;13.43;;
4806;SDS011;2417;52.482;13.432;2023-10-19T00:41:09;24.87;;;13.70;;
4806;SDS011;2417;52.482;13.432;2023-10-19T00:43:46;26.03;;;13.03;;
4806;SDS011;2417;52.482;13.432;2023-10-19T00:46:16;26.07;;;13.80;;
4806;SDS011;2417;52.482;13.432;2023-10-19T00:48:53;25.83;;;13.33;;
4806;SDS011;2417;52.482;13.432;2023-10-19T00:51:23;30.70;;;14.57;;
4806;SDS011;2417;52.482;13.432;2023-10-19T00:54:09;23.47;;;13.07;;
4806;SDS011;2417;52.482;13.432;2023-10-19T00:56:41;23.80;;;13.40;;
4806;SDS011;2417;52.482;13.432;2023-10-19T00:59:13;29.10;;;13.30;;
4806;SDS011;2417;52.482;13.432;2023-10-19T01:01:41;23.07;;;13.40;;
4806;SDS011;2417;52.482;13.432;2023-10-19T01:04:12;25.10;;;12.87;;
4806;SDS011;2417;52.482;13.432;2023-10-19T01:06:44;26.20;;;13.57;;
4806;SDS011;2417;52.482;13.432;2023-10-19T01:09:27;23.67;;;13.37;;
4806;SDS011;2417;52.482;13.432;2023-10-19T01:11:56;23.70;;;14.03;;
4806;SDS011;2417;52.482;13.432;2023-10-19T01:14:28;29.73;;;13.90;;
4806;SDS011;2417;52.482;13.432;2023-10-19T01:16:59;23.43;;;13.03;;
4806;SDS011;2417;52.482;13.432;2023-10-19T01:19:29;23.40;;;13.20;;
4806;SDS011;2417;52.482;13.432;2023-10-19T01:21:58;24.00;;;13.80;;
4806;SDS011;2417;52.482;13.432;2023-10-19T01:24:32;28.90;;;14.53;;
4806;SDS011;2417;52.482;13.432;2023-10-19T01:27:07;26.30;;;13.77;;
4806;SDS011;2417;52.482;13.432;2023-10-19T01:29:36;30.83;;;14.50;;
4806;SDS011;2417;52.482;13.432;2023-10-19T01:32:06;25.80;;;13.83;;
4806;SDS011;2417;52.482;13.432;2023-10-19T01:34:35;30.10;;;14.77;;
4806;SDS011;2417;52.482;13.432;2023-10-19T01:37:04;27.63;;;14.67;;
4806;SDS011;2417;52.482;13.432;2023-10-19T01:39:32;28.40;;;14.83;;
4806;SDS011;2417;52.482;13.432;2023-10-19T01:42:02;26.03;;;14.00;;
4806;SDS011;2417;52.482;13.432;2023-10-19T01:44:32;26.20;;;13.60;;
4806;SDS011;2417;52.482;13.432;2023-10-19T01:47:02;26.10;;;14.03;;
4806;SDS011;2417;52.482;13.432;2023-10-19T01:49:34;34.33;;;14.63;;
4806;SDS011;2417;52.482;13.432;2023-10-19T01:52:01;29.17;;;14.47;;
4806;SDS011;2417;52.482;13.432;2023-10-19T01:54:31;37.10;;;15.03;;
4806;SDS011;2417;52.482;13.432;2023-10-19T01:56:59;29.77;;;14.80;;
4806;SDS011;2417;52.482;13.432;2023-10-19T01:59:27;30.50;;;14.33;;
4806;SDS011;2417;52.482;13.432;2023-10-19T02:01:55;30.67;;;15.93;;
4806;SDS011;2417;52.482;13.432;2023-10-19T02:04:24;28.13;;;14.70;;
4806;SDS011;2417;52.482;13.432;2023-10-19T02:06:52;27.67;;;15.20;;
4806;SDS011;2417;52.482;13.432;2023-10-19T02:09:21;29.77;;;14.80;;
4806;SDS011;2417;52.482;13.432;2023-10-19T02:11:51;34.20;;;15.50;;
4806;SDS011;2417;52.482;13.432;2023-10-19T02:14:28;28.67;;;14.73;;
4806;SDS011;2417;52.482;13.432;2023-10-19T02:16:58;30.93;;;15.53;;
4806;SDS011;2417;52.482;13.432;2023-10-19T02:19:28;29.50;;;16.80;;
4806;SDS011;2417;52.482;13.432;2023-10-19T02:21:56;29.90;;;15.37;;
4806;SDS011;2417;52.482;13.432;2023-10-19T02:24:24;26.57;;;15.03;;
4806;SDS011;2417;52.482;13.432;2023-10-19T02:26:53;28.27;;;14.77;;
4806;SDS011;2417;52.482;13.432;2023-10-19T02:29:22;33.97;;;14.60;;
4806;SDS011;2417;52.482;13.432;2023-10-19T02:31:50;29.00;;;15.10;;
4806;SDS011;2417;52.482;13.432;2023-10-19T02:34:19;31.10;;;15.63;;
4806;SDS011;2417;52.482;13.432;2023-10-19T02:36:46;27.43;;;15.80;;
4806;SDS011;2417;52.482;13.432;2023-10-19T02:39:15;31.23;;;16.00;;
4806;SDS011;2417;52.482;13.432;2023-10-19T02:41:44;36.67;;;16.60;;
4806;SDS011;2417;52.482;13.432;2023-10-19T02:44:14;29.17;;;16.17;;
4806;SDS011;2417;52.482;13.432;2023-10-19T02:46:47;33.57;;;16.10;;
4806;SDS011;2417;52.482;13.432;2023-10-19T02:49:19;30.93;;;16.17;;
4806;SDS011;2417;52.482;13.432;2023-10-19T02:51:47;33.87;;;15.83;;
4806;SDS011;2417;52.482;13.432;2023-10-19T02:54:17;34.27;;;16.20;;
4806;SDS011;2417;52.482;13.432;2023-10-19T02:56:46;26.40;;;14.93;;
4806;SDS011;2417;52.482;13.432;2023-10-19T02:59:15;27.63;;;15.17;;
4806;SDS011;2417;52.482;13.432;2023-10-19T03:01:44;28.63;;;15.83;;
4806;SDS011;2417;52.482;13.432;2023-10-19T03:04:12;32.57;;;16.30;;
4806;SDS011;2417;52.482;13.432;2023-10-19T03:06:41;27.33;;;14.57;;
4806;SDS011;2417;52.482;13.432;2023-10-19T03:09:10;29.57;;;16.10;;
4806;SDS011;2417;52.482;13.432;2023-10-19T03:11:40;33.27;;;16.30;;
4806;SDS011;2417;52.482;13.432;2023-10-19T03:14:08;31.17;;;15.40;;
4806;SDS011;2417;52.482;13.432;2023-10-19T03:16:35;29.90;;;15.50;;
4806;SDS011;2417;52.482;13.432;2023-10-19T03:19:03;36.43;;;17.17;;
4806;SDS011;2417;52.482;13.432;2023-10-19T03:21:30;28.73;;;16.10;;
4806;SDS011;2417;52.482;13.432;2023-10-19T03:24:02;33.53;;;16.57;;
4806;SDS011;2417;52.482;13.432;2023-10-19T03:26:39;29.27;;;16.03;;
4806;SDS011;2417;52.482;13.432;2023-10-19T03:29:15;30.50;;;15.30;;
4806;SDS011;2417;52.482;13.432;2023-10-19T03:31:47;29.83;;;15.70;;
4806;SDS011;2417;52.482;13.432;2023-10-19T03:34:17;28.93;;;16.20;;
4806;SDS011;2417;52.482;13.432;2023-10-19T03:36:45;31.03;;;16.30;;
4806;SDS011;2417;52.482;13.432;2023-10-19T03:39:15;34.80;;;17.43;;
4806;SDS011;2417;52.482;13.432;2023-10-19T03:41:46;31.90;;;16.73;;
4806;SDS011;2417;52.482;13.432;2023-10-19T03:44:16;33.90;;;15.87;;
4806;SDS011;2417;52.482;13.432;2023-10-19T03:46:51;35.73;;;17.07;;
4806;SDS011;2417;52.482;13.432;2023-10-19T03:49:24;30.80;;;17.00;;
4806;SDS011;2417;52.482;13.432;2023-10-19T03:51:57;36.90;;;16.93;;
4806;SDS011;2417;52.482;13.432;2023-10-19T03:54:28;29.87;;;16.40;;
4806;SDS011;2417;52.482;13.432;2023-10-19T03:57:00;33.83;;;16.33;;
4806;SDS011;2417;52.482;13.432;2023-10-19T03:59:32;28.70;;;16.00;;
4806;SDS011;2417;52.482;13.432;2023-10-19T04:02:00;37.63;;;18.00;;
4806;SDS011;2417;52.482;13.432;2023-10-19T04:04:37;42.27;;;16.57;;
4806;SDS011;2417;52.482;13.432;2023-10-19T04:07:10;32.70;;;17.43;;
4806;SDS011;2417;52.482;13.432;2023-10-19T04:09:46;35.07;;;17.13;;
4806;SDS011;2417;52.482;13.432;2023-10-19T04:12:27;31.23;;;16.30;;
4806;SDS011;2417;52.482;13.432;2023-10-19T04:14:57;38.57;;;18.20;;
4806;SDS011;2417;52.482;13.432;2023-10-19T04:17:24;32.00;;;16.83;;
4806;SDS011;2417;52.482;13.432;2023-10-19T04:19:54;34.23;;;16.40;;
4806;SDS011;2417;52.482;13.432;2023-10-19T04:22:22;31.07;;;17.07;;
4806;SDS011;2417;52.482;13.432;2023-10-19T04:24:51;35.13;;;18.40;;
4806;SDS011;2417;52.482;13.432;2023-10-19T04:27:20;36.70;;;16.83;;
4806;SDS011;2417;52.482;13.432;2023-10-19T04:29:50;32.50;;;17.60;;
4806;SDS011;2417;52.482;13.432;2023-10-19T04:32:18;35.60;;;18.10;;
4806;SDS011;2417;52.482;13.432;2023-10-19T04:34:52;34.80;;;17.40;;
4806;SDS011;2417;52.482;13.432;2023-10-19T04:37:20;33.77;;;17.97;;
4806;SDS011;2417;52.482;13.432;2023-10-19T04:39:52;38.60;;;18.53;;
4806;SDS011;2417;52.482;13.432;2023-10-19T04:42:20;33.53;;;17.80;;
4806;SDS011;2417;52.482;13.432;2023-10-19T04:44:52;35.60;;;18.53;;
4806;SDS011;2417;52.482;13.432;2023-10-19T04:47:20;35.77;;;18.47;;
4806;SDS011;2417;52.482;13.432;2023-10-19T04:49:52;33.17;;;18.50;;
4806;SDS011;2417;52.482;13.432;2023-10-19T04:52:21;37.60;;;19.50;;
4806;SDS011;2417;52.482;13.432;2023-10-19T04:54:49;33.63;;;17.80;;
4806;SDS011;2417;52.482;13.432;2023-10-19T04:57:18;37.67;;;18.33;;
4806;SDS011;2417;52.482;13.432;2023-10-19T04:59:47;34.83;;;18.20;;
4806;SDS011;2417;52.482;13.432;2023-10-19T05:02:15;40.50;;;16.50;;
4806;SDS011;2417;52.482;13.432;2023-10-19T05:04:43;38.07;;;18.53;;
4806;SDS011;2417;52.482;13.432;2023-10-19T05:07:12;34.57;;;18.00;;
4806;SDS011;2417;52.482;13.432;2023-10-19T05:09:43;36.73;;;18.20;;
4806;SDS011;2417;52.482;13.432;2023-10-19T05:12:34;41.57;;;19.53;;
4806;SDS011;2417;52.482;13.432;2023-10-19T05:15:02;44.17;;;19.80;;
4806;SDS011;2417;52.482;13.432;2023-10-19T05:17:32;34.27;;;18.50;;
4806;SDS011;2417;52.482;13.432;2023-10-19T05:20:00;40.37;;;19.40;;
4806;SDS011;2417;52.482;13.432;2023-10-19T05:22:30;38.40;;;19.33;;
4806;SDS011;2417;52.482;13.432;2023-10-19T05:24:59;42.10;;;19.67;;
4806;SDS011;2417;52.482;13.432;2023-10-19T05:27:27;38.70;;;18.30;;
4806;SDS011;2417;52.482;13.432;2023-10-19T05:29:56;41.57;;;19.70;;
4806;SDS011;2417;52.482;13.432;2023-10-19T05:32:25;36.77;;;19.30;;
4806;SDS011;2417;52.482;13.432;2023-10-19T05:34:53;38.00;;;19.67;;
4806;SDS011;2417;52.482;13.432;2023-10-19T05:37:26;48.97;;;20.37;;
4806;SDS011;2417;52.482;13.432;2023-10-19T05:39:56;42.03;;;18.57;;
4806;SDS011;2417;52.482;13.432;2023-10-19T05:42:24;42.03;;;21.20;;
4806;SDS011;2417;52.482;13.432;2023-10-19T05:44:52;38.73;;;20.40;;
4806;SDS011;2417;52.482;13.432;2023-10-19T05:47:21;44.53;;;21.03;;
4806;SDS011;2417;52.482;13.432;2023-10-19T05:49:50;41.23;;;19.87;;
4806;SDS011;2417;52.482;13.432;2023-10-19T05:52:18;58.87;;;21.30;;
4806;SDS011;2417;52.482;13.432;2023-10-19T05:54:46;36.80;;;19.87;;
4806;SDS011;2417;52.482;13.432;2023-10-19T05:57:16;39.63;;;20.47;;
4806;SDS011;2417;52.482;13.432;2023-10-19T05:59:44;43.67;;;21.53;;
4806;SDS011;2417;52.482;13.432;2023-10-19T06:02:12;44.33;;;22.20;;
4806;SDS011;2417;52.482;13.432;2023-10-19T06:04:41;41.20;;;22.27;;
4806;SDS011;2417;52.482;13.432;2023-10-19T06:07:09;52.50;;;23.40;;
4806;SDS011;2417;52.482;13.432;2023-10-19T06:09:37;42.37;;;23.40;;
4806;SDS011;2417;52.482;13.432;2023-10-19T06:12:06;47.00;;;23.87;;
4806;SDS011;2417;52.482;13.432;2023-10-19T06:14:36;49.80;;;24.90;;
4806;SDS011;2417;52.482;13.432;2023-10-19T06:17:04;45.20;;;24.50;;
4806;SDS011;2417;52.482;13.432;2023-10-19T06:19:32;49.20;;;24.00;;
4806;SDS011;2417;52.482;13.432;2023-10-19T06:22:01;46.47;;;24.50;;
4806;SDS011;2417;52.482;13.432;2023-10-19T06:24:29;56.10;;;25.47;;
4806;SDS011;2417;52.482;13.432;2023-10-19T06:26:57;48.50;;;24.97;;
4806;SDS011;2417;52.482;13.432;2023-10-19T06:29:25;48.70;;;24.83;;
4806;SDS011;2417;52.482;13.432;2023-10-19T06:31:55;48.37;;;23.60;;
4806;SDS011;2417;52.482;13.432;2023-10-19T06:34:23;51.40;;;26.47;;
4806;SDS011;2417;52.482;13.432;2023-10-19T06:36:54;45.50;;;24.60;;
4806;SDS011;2417;52.482;13.432;2023-10-19T06:39:24;57.13;;;25.70;;
4806;SDS011;2417;52.482;13.432;2023-10-19T06:41:52;54.57;;;25.10;;
4806;SDS011;2417;52.482;13.432;2023-10-19T06:44:20;60.23;;;26.83;;
4806;SDS011;2417;52.482;13.432;2023-10-19T06:46:49;55.40;;;26.30;;
4806;SDS011;2417;52.482;13.432;2023-10-19T06:49:17;53.37;;;27.00;;
4806;SDS011;2417;52.482;13.432;2023-10-19T06:51:46;48.03;;;25.20;;
4806;SDS011;2417;52.482;13.432;2023-10-19T06:54:14;58.80;;;28.17;;
4806;SDS011;2417;52.482;13.432;2023-10-19T06:56:44;49.47;;;26.80;;
4806;SDS011;2417;52.482;13.432;2023-10-19T06:59:12;55.97;;;28.37;;
4806;SDS011;2417;52.482;13.432;2023-10-19T07:01:40;55.53;;;26.13;;
4806;SDS011;2417;52.482;13.432;2023-10-19T07:04:10;55.70;;;27.20;;
4806;SDS011;2417;52.482;13.432;2023-10-19T07:06:39;54.17;;;29.20;;
4806;SDS011;2417;52.482;13.432;2023-10-19T07:09:07;53.83;;;26.50;;
4806;SDS011;2417;52.482;13.432;2023-10-19T07:11:37;64.83;;;29.73;;
4806;SDS011;2417;52.482;13.432;2023-10-19T07:14:06;53.10;;;27.50;;
4806;SDS011;2417;52.482;13.432;2023-10-19T07:16:34;50.23;;;27.67;;
4806;SDS011;2417;52.482;13.432;2023-10-19T07:19:02;52.90;;;27.50;;
4806;SDS011;2417;52.482;13.432;2023-10-19T07:21:31;54.07;;;28.27;;
4806;SDS011;2417;52.482;13.432;2023-10-19T07:24:02;50.33;;;26.23;;
4806;SDS011;2417;52.482;13.432;2023-10-19T07:26:33;55.37;;;27.53;;
4806;SDS011;2417;52.482;13.432;2023-10-19T07:29:10;59.23;;;29.80;;
4806;SDS011;2417;52.482;13.432;2023-10-19T07:31:41;52.77;;;27.07;;
4806;SDS011;2417;52.482;13.432;2023-10-19T07:34:09;60.20;;;30.40;;
4806;SDS011;2417;52.482;13.432;2023-10-19T07:36:42;56.67;;;27.57;;
4806;SDS011;2417;52.482;13.432;2023-10-19T07:39:10;55.50;;;28.70;;
4806;SDS011;2417;52.482;13.432;2023-10-19T07:41:46;55.13;;;28.17;;
4806;SDS011;2417;52.482;13.432;2023-10-19T07:44:15;60.40;;;29.63;;
4806;SDS011;2417;52.482;13.432;2023-10-19T07:46:43;52.87;;;28.53;;
4806;SDS011;2417;52.482;13.432;2023-10-19T07:49:11;56.20;;;28.20;;
4806;SDS011;2417;52.482;13.432;2023-10-19T07:51:45;55.57;;;28.40;;
4806;SDS011;2417;52.482;13.432;2023-10-19T07:54:14;55.73;;;29.03;;
4806;SDS011;2417;52.482;13.432;2023-10-19T07:56:42;65.43;;;27.90;;
4806;SDS011;2417;52.482;13.432;2023-10-19T07:59:10;50.90;;;26.87;;
4806;SDS011;2417;52.482;13.432;2023-10-19T08:01:40;50.80;;;26.60;;
4806;SDS011;2417;52.482;13.432;2023-10-19T08:04:09;55.33;;;27.73;;
4806;SDS011;2417;52.482;13.432;2023-10-19T08:06:38;53.63;;;28.00;;
4806;SDS011;2417;52.482;13.432;2023-10-19T08:09:06;59.30;;;27.63;;
4806;SDS011;2417;52.482;13.432;2023-10-19T08:11:37;62.23;;;28.13;;
4806;SDS011;2417;52.482;13.432;2023-10-19T08:14:05;57.57;;;27.10;;
4806;SDS011;2417;52.482;13.432;2023-10-19T08:16:34;56.87;;;28.60;;
4806;SDS011;2417;52.482;13.432;2023-10-19T08:19:03;53.03;;;27.13;;
4806;SDS011;2417;52.482;13.432;2023-10-19T08:21:34;48.07;;;26.33;;
4806;SDS011;2417;52.482;13.432;2023-10-19T08:24:02;54.37;;;27.00;;
4806;SDS011;2417;52.482;13.432;2023-10-19T08:26:31;49.60;;;25.87;;
4806;SDS011;2417;52.482;13.432;2023-10-19T08:28:59;49.20;;;25.77;;
4806;SDS011;2417;52.482;13.432;2023-10-19T08:31:27;50.67;;;26.30;;
4806;SDS011;2417;52.482;13.432;2023-10-19T08:33:55;51.53;;;26.03;;
4806;SDS011;2417;52.482;13.432;2023-10-19T08:36:25;50.50;;;26.17;;
4806;SDS011;2417;52.482;13.432;2023-10-19T08:38:56;56.20;;;25.47;;
4806;SDS011;2417;52.482;13.432;2023-10-19T08:41:24;51.77;;;26.20;;
4806;SDS011;2417;52.482;13.432;2023-10-19T08:43:52;51.27;;;25.33;;
4806;SDS011;2417;52.482;13.432;2023-10-19T08:46:22;45.60;;;24.77;;
4806;SDS011;2417;52.482;13.432;2023-10-19T08:48:53;43.77;;;25.03;;
4806;SDS011;2417;52.482;13.432;2023-10-19T08:51:21;46.03;;;25.27;;
4806;SDS011;2417;52.482;13.432;2023-10-19T08:53:54;46.27;;;24.97;;
4806;SDS011;2417;52.482;13.432;2023-10-19T08:56:23;46.63;;;24.67;;
4806;SDS011;2417;52.482;13.432;2023-10-19T08:58:52;53.73;;;25.23;;
4806;SDS011;2417;52.482;13.432;2023-10-19T09:01:20;49.90;;;24.23;;
4806;SDS011;2417;52.482;13.432;2023-10-19T09:03:50;46.17;;;24.20;;
4806;SDS011;2417;52.482;13.432;2023-10-19T09:06:19;48.13;;;23.97;;
4806;SDS011;2417;52.482;13.432;2023-10-19T09:08:50;43.83;;;24.20;;
4806;SDS011;2417;52.482;13.432;2023-10-19T09:11:19;45.73;;;24.03;;
4806;SDS011;2417;52.482;13.432;2023-10-19T09:13:47;40.53;;;22.87;;
4806;SDS011;2417;52.482;13.432;2023-10-19T09:16:17;43.43;;;23.00;;
4806;SDS011;2417;52.482;13.432;2023-10-19T09:18:45;44.17;;;23.53;;
4806;SDS011;2417;52.482;13.432;2023-10-19T09:21:15;42.63;;;22.63;;
4806;SDS011;2417;52.482;13.432;2023-10-19T09:23:51;49.17;;;23.17;;
4806;SDS011;2417;52.482;13.432;2023-10-19T09:26:20;41.70;;;22.07;;
4806;SDS011;2417;52.482;13.432;2023-10-19T09:28:49;39.00;;;22.50;;
4806;SDS011;2417;52.482;13.432;2023-10-19T09:31:17;41.07;;;22.57;;
4806;SDS011;2417;52.482;13.432;2023-10-19T09:33:47;44.80;;;22.07;;
4806;SDS011;2417;52.482;13.432;2023-10-19T09:36:16;45.60;;;21.40;;
4806;SDS011;2417;52.482;13.432;2023-10-19T09:38:45;42.67;;;21.93;;
4806;SDS011;2417;52.482;13.432;2023-10-19T09:41:15;37.77;;;21.43;;
4806;SDS011;2417;52.482;13.432;2023-10-19T09:43:46;38.17;;;20.40;;
4806;SDS011;2417;52.482;13.432;2023-10-19T09:46:20;40.03;;;21.40;;
4806;SDS011;2417;52.482;13.432;2023-10-19T09:48:48;38.70;;;19.97;;
4806;SDS011;2417;52.482;13.432;2023-10-19T09:51:17;38.43;;;20.90;;
4806;SDS011;2417;52.482;13.432;2023-10-19T09:53:47;39.80;;;20.57;;
4806;SDS011;2417;52.482;13.432;2023-10-19T09:56:17;40.67;;;20.70;;
4806;SDS011;2417;52.482;13.432;2023-10-19T09:58:49;37.87;;;19.70;;
4806;SDS011;2417;52.482;13.432;2023-10-19T10:01:19;36.97;;;19.70;;
4806;SDS011;2417;52.482;13.432;2023-10-19T10:03:49;38.60;;;20.10;;
4806;SDS011;2417;52.482;13.432;2023-10-19T10:06:27;37.80;;;20.70;;
4806;SDS011;2417;52.482;13.432;2023-10-19T10:08:55;36.77;;;21.10;;
4806;SDS011;2417;52.482;13.432;2023-10-19T10:11:24;38.53;;;20.60;;
4806;SDS011;2417;52.482;13.432;2023-10-19T10:13:54;34.30;;;18.70;;
4806;SDS011;2417;52.482;13.432;2023-10-19T10:16:23;34.83;;;19.40;;
4806;SDS011;2417;52.482;13.432;2023-10-19T10:18:54;34.77;;;20.90;;
4806;SDS011;2417;52.482;13.432;2023-10-19T10:21:26;34.57;;;19.77;;
4806;SDS011;2417;52.482;13.432;2023-10-19T10:23:54;42.23;;;20.47;;
4806;SDS011;2417;52.482;13.432;2023-10-19T10:26:22;39.73;;;21.73;;
4806;SDS011;2417;52.482;13.432;2023-10-19T10:31:41;35.90;;;21.50;;
4806;SDS011;2417;52.482;13.432;2023-10-19T10:34:10;43.33;;;22.53;;
4806;SDS011;2417;52.482;13.432;2023-10-19T10:36:58;47.10;;;24.90;;
4806;SDS011;2417;52.482;13.432;2023-10-19T10:39:26;49.20;;;23.80;;
4806;SDS011;2417;52.482;13.432;2023-10-19T10:41:56;37.47;;;22.90;;
4806;SDS011;2417;52.482;13.432;2023-10-19T10:47:09;47.53;;;25.80;;
4806;SDS011;2417;52.482;13.432;2023-10-19T10:49:47;44.40;;;25.33;;
4806;SDS011;2417;52.482;13.432;2023-10-19T10:52:25;47.57;;;24.87;;
4806;SDS011;2417;52.482;13.432;2023-10-19T10:54:56;55.07;;;27.37;;
4806;SDS011;2417;52.482;13.432;2023-10-19T10:57:30;56.13;;;25.77;;
4806;SDS011;2417;52.482;13.432;2023-10-19T11:00:02;48.93;;;25.43;;
4806;SDS011;2417;52.482;13.432;2023-10-19T11:02:33;54.57;;;27.23;;
4806;SDS011;2417;52.482;13.432;2023-10-19T11:05:02;53.50;;;28.30;;
4806;SDS011;2417;52.482;13.432;2023-10-19T11:07:30;54.10;;;27.87;;
4806;SDS011;2417;52.482;13.432;2023-10-19T11:09:59;52.97;;;27.03;;
4806;SDS011;2417;52.482;13.432;2023-10-19T11:12:29;48.97;;;26.60;;
4806;SDS011;2417;52.482;13.432;2023-10-19T11:14:57;52.07;;;26.67;;
4806;SDS011;2417;52.482;13.432;2023-10-19T11:17:26;55.00;;;27.70;;
4806;SDS011;2417;52.482;13.432;2023-10-19T11:19:58;57.73;;;30.13;;
4806;SDS011;2417;52.482;13.432;2023-10-19T11:22:27;54.47;;;29.10;;
4806;SDS011;2417;52.482;13.432;2023-10-19T11:24:55;56.50;;;29.30;;
4806;SDS011;2417;52.482;13.432;2023-10-19T11:27:23;56.30;;;29.27;;
4806;SDS011;2417;52.482;13.432;2023-10-19T11:29:55;59.03;;;31.37;;
4806;SDS011;2417;52.482;13.432;2023-10-19T11:32:23;57.67;;;29.97;;
4806;SDS011;2417;52.482;13.432;2023-10-19T11:34:53;62.07;;;31.60;;
4806;SDS011;2417;52.482;13.432;2023-10-19T11:37:22;77.70;;;37.73;;
4806;SDS011;2417;52.482;13.432;2023-10-19T11:39:50;66.43;;;34.27;;
4806;SDS011;2417;52.482;13.432;2023-10-19T11:42:19;64.07;;;33.87;;
4806;SDS011;2417;52.482;13.432;2023-10-19T11:44:47;66.53;;;33.57;;
4806;SDS011;2417;52.482;13.432;2023-10-19T11:47:15;70.80;;;31.83;;
4806;SDS011;2417;52.482;13.432;2023-10-19T11:49:42;65.60;;;31.47;;
4806;SDS011;2417;52.482;13.432;2023-10-19T11:52:10;65.80;;;32.77;;
4806;SDS011;2417;52.482;13.432;2023-10-19T11:54:40;63.00;;;31.30;;
4806;SDS011;2417;52.482;13.432;2023-10-19T11:57:09;72.50;;;35.77;;
4806;SDS011;2417;52.482;13.432;2023-10-19T11:59:36;65.77;;;33.80;;
4806;SDS011;2417;52.482;13.432;2023-10-19T12:02:04;72.47;;;35.17;;
4806;SDS011;2417;52.482;13.432;2023-10-19T12:04:33;66.30;;;33.93;;
4806;SDS011;2417;52.482;13.432;2023-10-19T12:07:03;79.40;;;34.80;;
4806;SDS011;2417;52.482;13.432;2023-10-19T12:09:32;65.60;;;35.03;;
4806;SDS011;2417;52.482;13.432;2023-10-19T12:12:01;76.33;;;36.47;;
4806;SDS011;2417;52.482;13.432;2023-10-19T12:14:32;70.63;;;34.70;;
4806;SDS011;2417;52.482;13.432;2023-10-19T12:17:03;70.80;;;36.20;;
4806;SDS011;2417;52.482;13.432;2023-10-19T12:19:34;76.63;;;36.57;;
4806;SDS011;2417;52.482;13.432;2023-10-19T12:22:02;82.00;;;40.30;;
4806;SDS011;2417;52.482;13.432;2023-10-19T12:24:30;78.47;;;38.20;;
4806;SDS011;2417;52.482;13.432;2023-10-19T12:26:58;77.73;;;37.97;;
4806;SDS011;2417;52.482;13.432;2023-10-19T12:29:28;82.70;;;37.40;;
4806;SDS011;2417;52.482;13.432;2023-10-19T12:31:58;76.90;;;39.07;;
4806;SDS011;2417;52.482;13.432;2023-10-19T12:34:27;83.47;;;41.07;;
4806;SDS011;2417;52.482;13.432;2023-10-19T12:36:57;80.57;;;38.83;;
4806;SDS011;2417;52.482;13.432;2023-10-19T12:39:26;92.93;;;41.37;;
4806;SDS011;2417;52.482;13.432;2023-10-19T12:42:07;90.70;;;40.03;;
4806;SDS011;2417;52.482;13.432;2023-10-19T12:44:37;87.77;;;42.37;;
4806;SDS011;2417;52.482;13.432;2023-10-19T12:47:11;80.50;;;41.27;;
4806;SDS011;2417;52.482;13.432;2023-10-19T12:49:40;86.67;;;40.87;;
4806;SDS011;2417;52.482;13.432;2023-10-19T12:52:10;86.70;;;42.00;;
4806;SDS011;2417;52.482;13.432;2023-10-19T12:54:38;96.43;;;42.20;;
4806;SDS011;2417;52.482;13.432;2023-10-19T12:57:10;90.73;;;43.47;;
4806;SDS011;2417;52.482;13.432;2023-10-19T12:59:40;94.13;;;43.87;;
4806;SDS011;2417;52.482;13.432;2023-10-19T13:02:10;99.03;;;45.67;;
4806;SDS011;2417;52.482;13.432;2023-10-19T13:04:43;99.63;;;42.73;;
4806;SDS011;2417;52.482;13.432;2023-10-19T13:07:13;94.40;;;44.40;;
4806;SDS011;2417;52.482;13.432;2023-10-19T13:09:41;86.97;;;42.47;;
4806;SDS011;2417;52.482;13.432;2023-10-19T13:12:11;86.50;;;42.60;;
4806;SDS011;2417;52.482;13.432;2023-10-19T13:14:40;89.33;;;44.17;;
4806;SDS011;2417;52.482;13.432;2023-10-19T13:17:11;91.60;;;42.17;;
4806;SDS011;2417;52.482;13.432;2023-10-19T13:19:39;93.00;;;43.50;;
4806;SDS011;2417;52.482;13.432;2023-10-19T13:22:07;93.60;;;45.23;;
4806;SDS011;2417;52.482;13.432;2023-10-19T13:24:34;98.57;;;44.30;;
4806;SDS011;2417;52.482;13.432;2023-10-19T13:27:07;98.83;;;45.70;;
4806;SDS011;2417;52.482;13.432;2023-10-19T13:29:37;99.73;;;45.37;;
4806;SDS011;2417;52.482;13.432;2023-10-19T13:32:10;105.83;;;47.93;;
4806;SDS011;2417;52.482;13.432;2023-10-19T13:34:38;106.40;;;45.40;;
4806;SDS011;2417;52.482;13.432;2023-10-19T13:37:07;103.83;;;47.90;;
4806;SDS011;2417;52.482;13.432;2023-10-19T13:39:35;102.57;;;45.87;;
4806;SDS011;2417;52.482;13.432;2023-10-19T13:42:06;110.33;;;46.67;;
4806;SDS011;2417;52.482;13.432;2023-10-19T13:44:54;107.10;;;45.70;;
4806;SDS011;2417;52.482;13.432;2023-10-19T13:47:24;119.83;;;46.20;;
4806;SDS011;2417;52.482;13.432;2023-10-19T13:49:52;99.47;;;46.27;;
4806;SDS011;2417;52.482;13.432;2023-10-19T13:52:20;108.77;;;47.63;;
4806;SDS011;2417;52.482;13.432;2023-10-19T13:54:48;102.77;;;46.87;;
4806;SDS011;2417;52.482;13.432;2023-10-19T13:57:16;102.40;;;48.50;;
4806;SDS011;2417;52.482;13.432;2023-10-19T13:59:44;97.03;;;46.40;;
4806;SDS011;2417;52.482;13.432;2023-10-19T14:02:12;108.10;;;48.20;;
4806;SDS011;2417;52.482;13.432;2023-10-19T14:04:42;104.77;;;46.43;;
4806;SDS011;2417;52.482;13.432;2023-10-19T14:07:10;118.30;;;48.43;;
4806;SDS011;2417;52.482;13.432;2023-10-19T14:09:38;117.53;;;50.93;;
4806;SDS011;2417;52.482;13.432;2023-10-19T14:12:06;111.20;;;48.50;;
4806;SDS011;2417;52.482;13.432;2023-10-19T14:14:36;105.50;;;47.00;;
4806;SDS011;2417;52.482;13.432;2023-10-19T14:17:04;114.57;;;47.87;;
4806;SDS011;2417;52.482;13.432;2023-10-19T14:19:32;117.90;;;49.40;;
4806;SDS011;2417;52.482;13.432;2023-10-19T14:22:01;109.27;;;49.07;;
4806;SDS011;2417;52.482;13.432;2023-10-19T14:24:30;115.33;;;50.40;;
4806;SDS011;2417;52.482;13.432;2023-10-19T14:26:58;108.40;;;48.17;;
4806;SDS011;2417;52.482;13.432;2023-10-19T14:29:27;115.47;;;49.17;;
4806;SDS011;2417;52.482;13.432;2023-10-19T14:31:55;119.80;;;50.73;;
4806;SDS011;2417;52.482;13.432;2023-10-19T14:34:25;108.77;;;48.53;;
4806;SDS011;2417;52.482;13.432;2023-10-19T14:36:53;112.20;;;49.17;;
4806;SDS011;2417;52.482;13.432;2023-10-19T14:39:22;127.53;;;52.90;;
4806;SDS011;2417;52.482;13.432;2023-10-19T14:41:52;112.57;;;49.20;;
4806;SDS011;2417;52.482;13.432;2023-10-19T14:44:19;121.57;;;50.40;;
4806;SDS011;2417;52.482;13.432;2023-10-19T14:46:49;119.63;;;51.50;;
4806;SDS011;2417;52.482;13.432;2023-10-19T14:49:18;116.97;;;51.90;;
4806;SDS011;2417;52.482;13.432;2023-10-19T14:51:46;125.37;;;53.27;;
4806;SDS011;2417;52.482;13.432;2023-10-19T14:54:13;120.70;;;54.43;;